Time;durP1;ratioP1;P1;durP2;ratioP2;P2;SDS_P1;SDS_P2;PMS_P1;PMS_P2;Temp;Humidity;BMP_temperature;BMP_pressure;BME280_temperature;BME280_humidity;BME280_pressure;Samples;Min_cycle;Max_cycle;Signal;HPM_P1;HPM_P2
2023/08/19 00:02:11;;;;;;;13.35;11.35;;;;;;;22.92;69.33;101131.28;5043438;28;20049;-62
2023/08/19 00:04:39;;;;;;;12.20;10.68;;;;;;;22.92;70.06;101134.84;5043311;28;20483;-62
2023/08/19 00:07:07;;;;;;;14.68;11.55;;;;;;;22.93;69.59;101130.16;5043502;28;20046;-62
2023/08/19 00:09:38;;;;;;;13.68;11.88;;;;;;;22.91;69.71;101126.91;5043053;28;20053;-62
2023/08/19 00:12:06;;;;;;;12.25;10.95;;;;;;;22.91;69.42;101125.00;5043286;28;20053;-62
2023/08/19 00:14:34;;;;;;;13.30;10.57;;;;;;;22.90;69.68;101126.09;5057118;28;20498;-62
2023/08/19 00:17:03;;;;;;;11.85;10.60;;;;;;;22.90;69.55;101126.09;5062791;28;20045;-62
2023/08/19 00:19:32;;;;;;;14.18;10.82;;;;;;;22.90;69.27;101119.81;5061564;27;20127;-62
2023/08/19 00:22:00;;;;;;;13.05;10.55;;;;;;;22.89;69.26;101124.47;5063293;28;20053;-62
2023/08/19 00:24:28;;;;;;;11.30;10.10;;;;;;;22.89;69.62;101121.72;5048387;28;20050;-62
2023/08/19 00:26:57;;;;;;;12.07;10.02;;;;;;;22.90;69.26;101119.81;5045935;28;20102;-62
2023/08/19 00:29:25;;;;;;;13.30;11.45;;;;;;;22.89;69.48;101120.91;5062856;27;20045;-62
2023/08/19 00:31:52;;;;;;;12.05;10.85;;;;;;;22.88;69.21;101120.09;5047273;28;20057;-62
2023/08/19 00:34:21;;;;;;;12.07;10.43;;;;;;;22.88;69.62;101124.75;5058100;28;20078;-62
2023/08/19 00:36:50;;;;;;;12.27;10.82;;;;;;;22.87;69.55;101125.88;5058209;28;20066;-62
2023/08/19 00:39:18;;;;;;;13.05;11.13;;;;;;;22.86;69.46;101122.31;5042759;28;20050;-62
2023/08/19 00:41:48;;;;;;;11.70;10.13;;;;;;;22.86;69.69;101129.72;5042659;28;20049;-62
2023/08/19 00:44:16;;;;;;;11.70;9.70;;;;;;;22.86;69.57;101124.25;5042828;28;20049;-62
2023/08/19 00:46:44;;;;;;;11.57;10.25;;;;;;;22.86;69.63;101129.72;5042404;28;20057;-62
2023/08/19 00:49:12;;;;;;;12.50;11.23;;;;;;;22.84;69.64;101130.03;5058456;28;20098;-62
2023/08/19 00:51:40;;;;;;;12.73;10.73;;;;;;;22.84;69.72;101126.47;5041898;28;20045;-62
2023/08/19 00:54:09;;;;;;;14.23;10.07;;;;;;;22.84;69.39;101131.94;5037290;28;20056;-62
2023/08/19 00:56:38;;;;;;;12.25;10.45;;;;;;;22.84;69.48;101126.47;5042747;28;20049;-62
2023/08/19 00:59:06;;;;;;;11.35;9.95;;;;;;;22.82;69.21;101120.47;5042603;28;20049;-62
2023/08/19 01:01:34;;;;;;;11.70;10.50;;;;;;;22.81;69.32;101122.41;5049214;28;20056;-62
2023/08/19 01:04:02;;;;;;;13.05;10.07;;;;;;;22.80;69.52;101114.47;5062668;28;20052;-62
2023/08/19 01:06:37;;;;;;;11.00;9.80;;;;;;;22.79;69.31;101118.28;5062183;28;20056;-62
2023/08/19 01:09:16;;;;;;;11.60;9.90;;;;;;;22.78;69.29;101103.78;5057364;28;20045;-62
2023/08/19 01:11:52;;;;;;;12.63;9.90;;;;;;;22.77;69.50;101107.63;5062094;28;20086;-62
2023/08/19 01:14:34;;;;;;;11.77;10.57;;;;;;;22.70;68.87;101104.44;5062403;28;20112;-62
2023/08/19 01:17:04;;;;;;;12.00;10.05;;;;;;;22.76;69.35;101114.22;5049469;28;20050;-62
2023/08/19 01:19:33;;;;;;;11.30;9.23;;;;;;;22.75;69.20;101107.13;5042305;28;20049;-62
2023/08/19 01:22:04;;;;;;;10.07;8.98;;;;;;;22.76;69.43;101107.94;5042284;28;20102;-62
2023/08/19 01:24:36;;;;;;;12.32;9.57;;;;;;;22.74;69.18;101108.22;5045436;28;20489;-61
2023/08/19 01:27:05;;;;;;;12.85;10.65;;;;;;;22.73;69.20;101110.16;5051360;28;20048;-62
2023/08/19 01:29:33;;;;;;;13.27;10.48;;;;;;;22.73;68.94;101103.84;5062046;28;20105;-62
2023/08/19 01:32:03;;;;;;;10.82;9.40;;;;;;;22.72;69.25;101092.06;5060429;28;20045;-62
2023/08/19 01:34:31;;;;;;;10.65;9.55;;;;;;;22.72;69.36;101088.53;5061950;28;20073;-62
2023/08/19 01:37:07;;;;;;;10.85;9.65;;;;;;;22.70;68.99;101080.59;5086355;28;20050;-62
2023/08/19 01:39:37;;;;;;;10.48;9.35;;;;;;;22.69;69.35;101072.69;5146404;27;20047;-62
2023/08/19 01:42:06;;;;;;;10.77;9.35;;;;;;;22.68;68.91;101071.88;5146403;28;20055;-62
2023/08/19 01:44:35;;;;;;;11.85;10.02;;;;;;;22.68;69.08;101071.06;5111810;27;20060;-62
2023/08/19 01:47:13;;;;;;;14.07;10.07;;;;;;;22.68;68.98;101076.53;5065165;28;20109;-62
2023/08/19 01:49:40;;;;;;;10.35;9.27;;;;;;;22.66;68.72;101076.81;5053216;28;20049;-61
2023/08/19 01:52:08;;;;;;;10.93;9.43;;;;;;;22.66;69.19;101076.00;5045584;28;20109;-62
2023/08/19 01:54:37;;;;;;;11.02;9.75;;;;;;;22.65;68.93;101066.97;5044651;28;20053;-62
2023/08/19 01:57:06;;;;;;;9.70;8.70;;;;;;;22.65;68.66;101063.44;5045027;28;20288;-62
2023/08/19 01:59:35;;;;;;;11.75;9.50;;;;;;;22.64;69.08;101070.81;5065314;27;20053;-62
2023/08/19 02:02:02;;;;;;;10.20;8.95;;;;;;;22.64;68.81;101070.00;5063538;28;20387;-62
2023/08/19 02:04:30;;;;;;;10.43;9.32;;;;;;;22.64;68.68;101064.53;5064209;28;20049;-62
2023/08/19 02:06:58;;;;;;;11.07;9.90;;;;;;;22.65;69.00;101071.66;5045360;28;20050;-62
2023/08/19 02:09:28;;;;;;;9.52;8.35;;;;;;;22.64;68.95;101076.31;5051695;28;20049;-63
2023/08/19 02:11:58;;;;;;;10.55;9.00;;;;;;;22.64;68.59;101062.63;5064054;28;20101;-62
2023/08/19 02:14:26;;;;;;;10.60;9.50;;;;;;;22.64;68.61;101057.13;5045248;28;20049;-62
2023/08/19 02:16:54;;;;;;;10.40;8.98;;;;;;;22.64;68.71;101059.88;5044136;28;20061;-62
2023/08/19 02:19:22;;;;;;;9.52;8.52;;;;;;;22.64;68.51;101057.13;5045159;28;20122;-62
2023/08/19 02:21:50;;;;;;;10.38;8.70;;;;;;;22.64;68.90;101051.66;5044927;28;20076;-62
2023/08/19 02:24:18;;;;;;;9.00;8.10;;;;;;;22.64;68.41;101054.38;5038658;28;20102;-62
2023/08/19 02:26:45;;;;;;;9.98;8.57;;;;;;;22.64;68.71;101050.84;5045883;28;20078;-62
2023/08/19 02:29:15;;;;;;;10.05;9.05;;;;;;;22.63;69.07;101044.53;5049727;28;20402;-63
2023/08/19 02:31:43;;;;;;;10.15;9.07;;;;;;;22.64;68.55;101040.69;5044492;28;20455;-63
2023/08/19 02:34:11;;;;;;;9.80;8.70;;;;;;;22.63;68.72;101028.09;5059002;28;20045;-62
2023/08/19 02:36:39;;;;;;;11.05;8.85;;;;;;;22.62;68.92;101033.88;5061374;28;20106;-62
2023/08/19 02:39:07;;;;;;;10.43;8.40;;;;;;;22.62;68.49;101039.38;5060960;28;20087;-62
2023/08/19 02:41:35;;;;;;;11.38;8.38;;;;;;;22.62;68.78;101042.09;5064594;28;20060;-62
2023/08/19 02:44:03;;;;;;;9.93;8.75;;;;;;;22.62;68.52;101039.38;5063011;28;20056;-62
2023/08/19 02:46:32;;;;;;;8.60;7.63;;;;;;;22.62;68.43;101051.13;5064133;28;20049;-62
2023/08/19 02:49:00;;;;;;;9.02;8.13;;;;;;;22.62;68.84;101044.84;5063618;28;20109;-61
2023/08/19 02:51:28;;;;;;;9.60;8.10;;;;;;;22.61;68.73;101040.47;5043857;28;20091;-62
2023/08/19 02:53:56;;;;;;;9.00;8.05;;;;;;;22.61;68.62;101040.47;5039427;28;20053;-62
2023/08/19 02:56:24;;;;;;;10.10;7.97;;;;;;;22.60;68.94;101038.84;5044407;28;20053;-62
2023/08/19 02:58:52;;;;;;;10.15;8.98;;;;;;;22.60;68.98;101039.66;5045258;27;20052;-62
2023/08/19 03:01:20;;;;;;;9.50;8.20;;;;;;;22.58;68.52;101036.41;5064002;27;20051;-62
2023/08/19 03:03:49;;;;;;;9.55;7.53;;;;;;;22.57;68.42;101032.03;5064584;28;20074;-62
2023/08/19 03:06:17;;;;;;;10.15;7.65;;;;;;;22.57;68.55;101033.97;5048480;28;20090;-62
2023/08/19 03:08:45;;;;;;;9.52;8.52;;;;;;;22.57;68.85;101031.22;5058613;28;20070;-61
2023/08/19 03:11:13;;;;;;;8.77;7.88;;;;;;;22.56;68.78;101030.41;5043963;28;20053;-62
2023/08/19 03:13:41;;;;;;;9.77;7.60;;;;;;;22.54;68.63;101040.84;5043713;28;20046;-62
2023/08/19 03:16:09;;;;;;;8.55;7.55;;;;;;;22.55;68.95;101036.19;5043745;28;20053;-62
2023/08/19 03:18:37;;;;;;;11.77;8.10;;;;;;;22.54;68.75;101032.63;5046142;28;20041;-62
2023/08/19 03:21:06;;;;;;;9.95;7.32;;;;;;;22.54;68.97;101027.16;5045627;28;20117;-62
2023/08/19 03:23:34;;;;;;;9.63;7.90;;;;;;;22.52;68.74;101026.66;5044600;27;20106;-63
2023/08/19 03:26:02;;;;;;;10.13;8.82;;;;;;;22.52;69.00;101025.84;5043898;28;20049;-62
2023/08/19 03:28:30;;;;;;;11.38;8.68;;;;;;;22.51;68.72;101022.28;5124530;27;20047;-62
2023/08/19 03:30:58;;;;;;;8.63;7.72;;;;;;;22.51;68.52;101019.56;5076880;27;20041;-62
2023/08/19 03:33:26;;;;;;;8.68;7.78;;;;;;;22.51;68.46;101025.03;5063874;28;20056;-63
2023/08/19 03:35:59;;;;;;;10.48;7.90;;;;;;;22.50;68.91;101023.41;5060346;28;20060;-63
2023/08/19 03:38:28;;;;;;;8.30;7.45;;;;;;;22.50;68.84;101028.88;5139198;27;20404;-62
2023/08/19 03:40:56;;;;;;;9.63;8.18;;;;;;;22.49;68.53;101030.00;5147783;27;20112;-62
2023/08/19 03:43:24;;;;;;;8.55;7.22;;;;;;;22.49;68.73;101034.66;5062802;28;20136;-61
2023/08/19 03:45:52;;;;;;;9.52;7.63;;;;;;;22.48;68.74;101036.59;5063247;27;20057;-62
2023/08/19 03:48:20;;;;;;;9.98;7.63;;;;;;;22.47;68.69;101029.47;5063654;28;20049;-63
2023/08/19 03:50:48;;;;;;;9.48;7.82;;;;;;;22.47;68.94;101025.94;5049512;28;20049;-63
2023/08/19 03:53:15;;;;;;;9.77;8.20;;;;;;;22.47;69.04;101034.16;5057422;28;20054;-63
2023/08/19 03:55:48;;;;;;;10.65;8.10;;;;;;;22.47;68.92;101036.88;5063327;28;20482;-63
2023/08/19 03:58:16;;;;;;;10.65;7.35;;;;;;;22.45;68.93;101047.31;5063699;28;20100;-63
2023/08/19 04:00:44;;;;;;;7.68;6.88;;;;;;;22.45;68.80;101047.31;5062992;28;20101;-63
2023/08/19 04:03:12;;;;;;;8.88;7.78;;;;;;;22.45;68.79;101042.66;5055429;28;20094;-63
2023/08/19 04:05:40;;;;;;;10.98;8.07;;;;;;;22.46;69.03;101046.22;5043440;28;20046;-63
2023/08/19 04:08:08;;;;;;;8.48;7.35;;;;;;;22.45;69.05;101039.91;5042839;28;20050;-63
2023/08/19 04:10:36;;;;;;;9.43;7.05;;;;;;;22.45;68.52;101031.69;5042361;28;20054;-63
2023/08/19 04:13:05;;;;;;;8.70;6.85;;;;;;;22.45;68.60;101041.84;5043325;28;20093;-62
2023/08/19 04:15:33;;;;;;;10.43;7.22;;;;;;;22.45;68.69;101042.66;5042828;28;20045;-61
2023/08/19 04:18:02;;;;;;;8.50;7.32;;;;;;;22.46;68.50;101049.75;5043344;28;20049;-62
2023/08/19 04:20:29;;;;;;;7.57;6.60;;;;;;;22.46;68.92;101046.22;5056945;27;20451;-62
2023/08/19 04:22:57;;;;;;;8.52;6.88;;;;;;;22.44;68.36;101043.78;5061025;28;20045;-62
2023/08/19 04:25:25;;;;;;;7.60;6.80;;;;;;;22.44;68.48;101049.25;5050381;28;20056;-62
2023/08/19 04:27:53;;;;;;;8.40;7.40;;;;;;;22.44;68.83;101043.78;5096461;27;20054;-61
2023/08/19 04:30:23;;;;;;;8.93;7.68;;;;;;;22.44;68.72;101046.50;5146487;27;20515;-61
2023/08/19 04:32:51;;;;;;;10.15;6.63;;;;;;;22.44;68.71;101049.25;5092045;27;20041;-61
2023/08/19 04:35:19;;;;;;;7.90;6.88;;;;;;;22.44;68.41;101057.47;5061851;28;20484;-61
2023/08/19 04:37:47;;;;;;;9.23;6.47;;;;;;;22.43;68.51;101055.03;5056108;28;20057;-62
2023/08/19 04:40:15;;;;;;;8.98;6.63;;;;;;;22.43;68.47;101044.88;5061705;28;20052;-62
2023/08/19 04:42:43;;;;;;;9.25;6.55;;;;;;;22.43;68.45;101049.53;5060158;28;20060;-62
2023/08/19 04:45:11;;;;;;;7.05;6.35;;;;;;;22.42;68.59;101051.47;5061597;28;20057;-62
2023/08/19 04:47:40;;;;;;;11.43;6.43;;;;;;;22.42;68.57;101054.22;5062172;28;20490;-63
2023/08/19 04:50:09;;;;;;;9.40;6.82;;;;;;;22.41;68.41;101058.06;5051439;28;20479;-62
2023/08/19 04:52:37;;;;;;;7.55;6.35;;;;;;;22.43;68.65;101052.28;5022413;28;20466;-63
2023/08/19 04:55:06;;;;;;;7.43;6.30;;;;;;;22.42;68.89;101042.44;5038392;28;20053;-63
2023/08/19 04:57:34;;;;;;;7.68;6.20;;;;;;;22.42;68.55;101045.19;5042832;28;20070;-63
2023/08/19 05:00:02;;;;;;;9.05;6.35;;;;;;;22.40;68.95;101048.22;5042205;28;20060;-63
2023/08/19 05:02:30;;;;;;;6.60;5.90;;;;;;;22.40;68.48;101049.03;5041593;28;20125;-63
2023/08/19 05:04:59;;;;;;;7.40;6.50;;;;;;;22.39;68.89;101041.91;5022938;28;20080;-62
2023/08/19 05:07:27;;;;;;;9.35;6.60;;;;;;;22.39;68.68;101035.63;5022745;28;20050;-62
2023/08/19 05:09:55;;;;;;;7.65;5.97;;;;;;;22.38;68.51;101053.97;5039071;28;20041;-62
2023/08/19 05:12:23;;;;;;;8.20;6.55;;;;;;;22.38;68.50;101051.25;5042151;28;20067;-62
2023/08/19 05:14:52;;;;;;;8.25;6.97;;;;;;;22.37;68.47;101051.53;5042395;28;20082;-62
2023/08/19 05:17:20;;;;;;;8.50;6.60;;;;;;;22.36;68.60;101056.19;5042138;28;20057;-62
2023/08/19 05:19:48;;;;;;;10.13;6.05;;;;;;;22.36;69.02;101060.88;5043758;28;20046;-62
2023/08/19 05:22:18;;;;;;;8.82;6.90;;;;;;;22.36;68.93;101075.38;5045910;28;20098;-63
2023/08/19 05:24:46;;;;;;;8.95;6.70;;;;;;;22.36;68.53;101069.91;5046120;28;20067;-62
2023/08/19 05:27:13;;;;;;;7.25;6.30;;;;;;;22.33;68.66;101065.00;5073189;27;20043;-62
2023/08/19 05:29:41;;;;;;;8.70;5.97;;;;;;;22.34;68.94;101060.34;5150649;27;20043;-62
2023/08/19 05:32:09;;;;;;;8.07;6.60;;;;;;;22.34;68.58;101063.09;5150215;27;20047;-62
2023/08/19 05:34:37;;;;;;;8.27;6.63;;;;;;;22.33;68.47;101065.00;5073544;27;20070;-62
2023/08/19 05:37:05;;;;;;;11.18;6.68;;;;;;;22.33;68.53;101065.00;5095367;27;20043;-62
2023/08/19 05:39:34;;;;;;;11.88;5.95;;;;;;;22.32;68.53;101066.13;5140509;27;20051;-62
2023/08/19 05:42:03;;;;;;;9.13;5.82;;;;;;;22.33;68.92;101062.28;5061180;28;20062;-63
2023/08/19 05:44:31;;;;;;;8.20;6.10;;;;;;;22.33;68.42;101069.66;5045447;28;20049;-62
2023/08/19 05:46:59;;;;;;;7.30;5.75;;;;;;;22.32;69.00;101073.53;5051134;28;20045;-63
2023/08/19 05:49:27;;;;;;;6.82;5.72;;;;;;;22.32;68.55;101065.31;5060869;28;20041;-61
2023/08/19 05:51:55;;;;;;;7.13;5.97;;;;;;;22.32;68.60;101076.25;5045203;28;20046;-62
2023/08/19 05:54:23;;;;;;;6.68;5.57;;;;;;;22.31;68.71;101078.19;5046077;28;20136;-62
2023/08/19 05:56:52;;;;;;;8.63;5.72;;;;;;;22.32;68.86;101077.06;5045158;28;20053;-62
2023/08/19 05:59:20;;;;;;;7.47;5.50;;;;;;;22.31;68.83;101075.44;5045296;28;20050;-62
2023/08/19 06:01:48;;;;;;;11.27;6.38;;;;;;;22.31;68.85;101072.69;5045075;28;20061;-62
2023/08/19 06:04:16;;;;;;;6.32;5.38;;;;;;;22.29;68.82;101074.09;5044902;28;20072;-62
2023/08/19 06:06:44;;;;;;;8.45;5.90;;;;;;;22.30;68.85;101082.03;5045130;28;20046;-62
2023/08/19 06:09:12;;;;;;;9.48;6.30;;;;;;;22.32;68.99;101082.53;5045134;28;20045;-62
2023/08/19 06:11:48;;;;;;;6.72;6.03;;;;;;;22.31;68.93;101080.09;5044890;28;20083;-62
2023/08/19 06:14:17;;;;;;;8.13;5.65;;;;;;;22.31;68.86;101097.34;5045236;28;20041;-62
2023/08/19 06:16:46;;;;;;;8.23;5.65;;;;;;;22.31;69.04;101094.59;5058517;28;20049;-63
2023/08/19 06:19:14;;;;;;;9.15;5.90;;;;;;;22.24;68.80;101082.38;5065163;28;20045;-63
2023/08/19 06:21:44;;;;;;;6.35;5.35;;;;;;;22.31;68.63;101097.34;5053036;27;20052;-63
2023/08/19 06:24:12;;;;;;;8.43;5.88;;;;;;;22.33;68.66;101105.28;5045535;27;20049;-63
2023/08/19 06:26:40;;;;;;;8.60;5.40;;;;;;;22.32;68.71;101101.72;5051379;27;20083;-63
2023/08/19 06:29:07;;;;;;;6.40;5.28;;;;;;;22.33;68.95;101111.56;5108032;27;20062;-63
2023/08/19 06:31:37;;;;;;;8.70;5.50;;;;;;;22.33;68.70;101103.34;5064087;28;20117;-63
2023/08/19 06:34:06;;;;;;;8.05;6.13;;;;;;;22.33;68.63;101111.56;5064756;28;20055;-62
2023/08/19 06:36:37;;;;;;;9.45;5.78;;;;;;;22.33;68.59;101114.31;5074045;28;20082;-62
2023/08/19 06:39:08;;;;;;;9.20;5.82;;;;;;;22.33;68.72;101125.25;5100745;28;20045;-62
2023/08/19 06:41:40;;;;;;;7.45;5.88;;;;;;;22.34;68.68;101126.06;5043383;28;20050;-61
2023/08/19 06:44:08;;;;;;;7.70;5.70;;;;;;;22.34;69.29;101124.16;5043729;28;20142;-62
2023/08/19 06:46:38;;;;;;;7.88;5.70;;;;;;;22.34;69.19;101120.59;5046786;28;20048;-62
2023/08/19 06:49:07;;;;;;;7.38;6.18;;;;;;;22.36;68.86;101126.59;5061786;28;20053;-62
2023/08/19 06:51:35;;;;;;;9.43;5.85;;;;;;;22.35;69.08;101131.25;5053066;28;20081;-62
2023/08/19 06:54:04;;;;;;;6.07;5.07;;;;;;;22.36;69.17;101140.28;5050660;28;20082;-62
2023/08/19 06:56:34;;;;;;;7.35;5.25;;;;;;;22.35;69.79;101134.00;5043530;28;20113;-62
2023/08/19 06:59:10;;;;;;;11.27;6.18;;;;;;;22.37;69.95;101136.44;5043347;28;20045;-62
2023/08/19 07:01:46;;;;;;;8.73;6.07;;;;;;;22.36;69.87;101149.31;5057489;28;20073;-62
2023/08/19 07:04:14;;;;;;;5.60;5.00;;;;;;;22.37;69.63;101147.38;5053401;28;20054;-62
2023/08/19 07:06:43;;;;;;;6.60;5.45;;;;;;;22.38;69.67;101151.75;5043390;28;20045;-62
2023/08/19 07:09:12;;;;;;;9.10;6.20;;;;;;;22.39;69.85;101154.22;5058969;28;20049;-62
2023/08/19 07:11:41;;;;;;;8.70;5.53;;;;;;;22.39;69.92;101148.72;5062562;28;20041;-62
2023/08/19 07:14:10;;;;;;;9.70;6.22;;;;;;;22.40;69.99;101152.28;5063190;28;20056;-62
2023/08/19 07:16:40;;;;;;;8.18;5.43;;;;;;;22.39;70.28;101148.72;5055843;28;20109;-62
2023/08/19 07:19:12;;;;;;;7.72;6.05;;;;;;;22.40;69.81;101149.53;5043125;28;20150;-62
2023/08/19 07:21:42;;;;;;;6.47;5.50;;;;;;;22.40;69.91;101139.41;5042868;28;20045;-62
2023/08/19 07:24:11;;;;;;;9.25;6.05;;;;;;;22.42;70.05;101146.50;5046000;28;20093;-62
2023/08/19 07:26:40;;;;;;;9.32;6.03;;;;;;;22.43;69.91;101159.91;5052539;28;20045;-62
2023/08/19 07:29:09;;;;;;;8.82;6.13;;;;;;;22.43;70.43;101154.44;5147493;28;20046;-62
2023/08/19 07:31:37;;;;;;;7.47;5.53;;;;;;;22.36;70.43;101143.84;5100836;28;20045;-62
2023/08/19 07:34:07;;;;;;;10.55;5.47;;;;;;;22.46;70.61;101164.81;5062938;28;20045;-62
2023/08/19 07:36:35;;;;;;;8.20;5.45;;;;;;;22.46;70.67;101175.75;5028880;27;1108703;-62
2023/08/19 07:39:03;;;;;;;7.63;5.22;;;;;;;22.46;70.15;101178.50;5148119;27;20100;-62
2023/08/19 07:41:31;;;;;;;9.02;6.13;;;;;;;22.48;70.25;101176.28;5147564;27;20054;-62
2023/08/19 07:43:59;;;;;;;7.00;5.50;;;;;;;22.49;70.28;101172.44;5147893;27;20043;-62
2023/08/19 07:46:28;;;;;;;10.57;5.32;;;;;;;22.50;70.40;101182.28;5091738;27;20079;-62
2023/08/19 07:48:56;;;;;;;7.78;5.25;;;;;;;22.51;70.63;101194.06;5043924;28;20057;-62
2023/08/19 07:51:26;;;;;;;9.82;5.65;;;;;;;22.52;70.89;101199.25;5043046;28;20498;-62
2023/08/19 07:53:53;;;;;;;7.97;5.50;;;;;;;22.53;70.52;101198.13;5057669;28;20049;-62
2023/08/19 07:56:21;;;;;;;7.72;5.10;;;;;;;22.54;70.64;101199.72;5063469;27;20049;-61
2023/08/19 07:58:49;;;;;;;8.50;5.53;;;;;;;22.52;70.78;101185.53;5061799;28;20048;-62
2023/08/19 08:01:17;;;;;;;7.00;5.65;;;;;;;22.56;71.23;101186.56;5046312;28;20049;-62
2023/08/19 08:03:46;;;;;;;7.32;5.47;;;;;;;22.55;71.10;101176.72;5043548;28;20470;-62
2023/08/19 08:06:14;;;;;;;8.60;5.40;;;;;;;22.56;71.24;101175.59;5043389;28;20049;-63
2023/08/19 08:08:43;;;;;;;9.40;5.88;;;;;;;22.57;70.90;101192.84;5043450;28;20053;-63
2023/08/19 08:11:11;;;;;;;10.98;5.70;;;;;;;22.58;70.82;101191.75;5042808;28;20102;-63
2023/08/19 08:13:39;;;;;;;7.75;5.22;;;;;;;22.58;71.15;101195.28;5043450;28;20103;-63
2023/08/19 08:16:07;;;;;;;10.05;5.65;;;;;;;22.59;71.45;101196.09;5062700;27;20049;-63
2023/08/19 08:18:35;;;;;;;9.25;5.47;;;;;;;22.61;71.23;101204.84;5062202;28;20055;-63
2023/08/19 08:21:03;;;;;;;7.38;5.40;;;;;;;22.61;71.54;101204.84;5062249;28;20049;-63
2023/08/19 08:23:31;;;;;;;8.23;5.43;;;;;;;22.61;71.18;101207.59;5056366;28;20098;-63
2023/08/19 08:26:00;;;;;;;10.57;5.70;;;;;;;22.63;71.10;101219.88;5043121;28;20050;-63
2023/08/19 08:28:28;;;;;;;7.70;5.78;;;;;;;22.64;71.36;101224.25;5061394;28;20045;-61
2023/08/19 08:30:56;;;;;;;11.60;6.22;;;;;;;22.65;71.33;101227.81;5062372;28;20094;-61
2023/08/19 08:33:25;;;;;;;6.85;5.43;;;;;;;22.64;71.63;101221.53;5061316;28;20049;-62
2023/08/19 08:35:53;;;;;;;6.78;5.47;;;;;;;22.68;71.44;101229.97;5062492;28;20064;-62
2023/08/19 08:38:21;;;;;;;7.40;6.07;;;;;;;22.68;71.73;101243.66;5045405;28;20143;-62
2023/08/19 08:40:49;;;;;;;10.48;5.68;;;;;;;22.69;71.82;101248.03;5042400;28;20567;-62
2023/08/19 08:43:18;;;;;;;8.18;5.13;;;;;;;22.69;71.90;101248.03;5059160;28;20459;-62
2023/08/19 08:45:46;;;;;;;9.98;5.40;;;;;;;22.71;72.19;101245.81;5060855;28;20049;-62
2023/08/19 08:48:17;;;;;;;7.25;5.57;;;;;;;22.70;71.97;101239.53;5042295;28;20064;-62
2023/08/19 08:50:46;;;;;;;7.65;5.15;;;;;;;22.72;71.99;101250.19;5042419;28;20053;-62
2023/08/19 08:53:14;;;;;;;6.72;4.93;;;;;;;22.73;71.82;101262.78;5054573;28;20054;-62
2023/08/19 08:55:42;;;;;;;11.30;6.00;;;;;;;22.73;71.69;101263.59;5062452;28;20061;-61
2023/08/19 08:58:10;;;;;;;7.32;6.07;;;;;;;22.74;72.02;101267.97;5047749;28;20045;-62
2023/08/19 09:00:40;;;;;;;8.65;5.47;;;;;;;22.76;72.53;101280.56;5046900;28;20102;-62
2023/08/19 09:03:10;;;;;;;8.75;5.88;;;;;;;22.75;72.18;101274.28;5062500;28;20056;-62
2023/08/19 09:05:41;;;;;;;7.05;5.55;;;;;;;22.77;72.74;101273.97;5062406;28;20045;-61
2023/08/19 09:08:14;;;;;;;10.52;5.68;;;;;;;22.78;72.54;101278.34;5062546;28;20086;-61
2023/08/19 09:10:46;;;;;;;8.32;5.78;;;;;;;22.79;73.20;101274.50;5045107;28;20049;-62
2023/08/19 09:13:21;;;;;;;8.10;5.03;;;;;;;22.79;72.68;101280.84;5042562;28;20054;-62
2023/08/19 09:15:50;;;;;;;8.43;6.18;;;;;;;22.80;72.59;101296.16;5047212;28;20453;-62
2023/08/19 09:18:18;;;;;;;11.73;5.85;;;;;;;22.82;73.40;101288.47;5062524;28;20045;-62
2023/08/19 09:20:47;;;;;;;9.95;4.95;;;;;;;22.82;73.23;101298.63;5061931;28;20491;-62
2023/08/19 09:23:16;;;;;;;11.82;5.80;;;;;;;22.82;73.57;101296.69;5057688;28;20049;-62
2023/08/19 09:25:44;;;;;;;7.65;6.15;;;;;;;22.84;73.25;101312.84;5047135;27;20049;-62
2023/08/19 09:28:17;;;;;;;11.35;6.30;;;;;;;22.84;73.65;101307.34;5109191;28;20050;-62
2023/08/19 09:30:44;;;;;;;9.95;6.50;;;;;;;22.85;74.12;101298.03;5145831;28;20076;-62
2023/08/19 09:33:20;;;;;;;9.60;6.85;;;;;;;22.86;74.82;101313.38;5120961;28;20049;-62
2023/08/19 09:35:56;;;;;;;12.05;6.65;;;;;;;22.86;74.40;101319.66;5060278;28;20057;-62
2023/08/19 09:38:27;;;;;;;11.25;6.88;;;;;;;22.88;74.63;101324.84;5129089;28;20137;-62
2023/08/19 09:40:59;;;;;;;12.15;7.18;;;;;;;22.89;75.07;101335.53;5041641;28;20133;-61
2023/08/19 09:43:27;;;;;;;11.52;6.97;;;;;;;22.90;74.51;101339.09;5041252;28;20069;-62
2023/08/19 09:45:58;;;;;;;15.38;7.85;;;;;;;22.91;75.44;101329.75;5041678;28;20046;-62
2023/08/19 09:48:28;;;;;;;15.80;8.52;;;;;;;22.94;75.69;101337.38;5046557;28;20060;-62
2023/08/19 09:50:56;;;;;;;14.52;8.50;;;;;;;22.94;75.76;101340.13;5044570;28;20081;-62
2023/08/19 09:53:29;;;;;;;10.70;8.00;;;;;;;22.94;75.40;101340.94;5042693;28;20049;-63
2023/08/19 09:55:57;;;;;;;12.50;8.02;;;;;;;22.98;75.74;101349.41;5062030;28;20049;-63
2023/08/19 09:58:26;;;;;;;9.60;8.45;;;;;;;22.98;75.62;101357.63;5043227;28;20053;-62
2023/08/19 10:00:53;;;;;;;14.02;9.23;;;;;;;23.00;75.89;101350.75;5057070;27;20044;-62
2023/08/19 10:03:22;;;;;;;11.15;8.07;;;;;;;23.02;75.74;101361.41;5052923;28;20073;-62
2023/08/19 10:05:53;;;;;;;12.25;9.15;;;;;;;23.05;76.38;101377.28;5043137;28;20113;-62
2023/08/19 10:08:23;;;;;;;14.15;8.73;;;;;;;23.06;75.91;101373.44;5045030;28;20045;-62
2023/08/19 10:10:51;;;;;;;12.10;8.52;;;;;;;23.08;76.03;101370.41;5025213;28;20054;-61
2023/08/19 10:13:22;;;;;;;14.48;9.13;;;;;;;23.04;75.75;101361.94;5048030;28;20053;-62
2023/08/19 10:15:51;;;;;;;14.85;8.95;;;;;;;23.11;75.91;101376.09;5064594;28;20056;-63
2023/08/19 10:18:24;;;;;;;16.17;9.65;;;;;;;23.13;75.63;101378.56;5064988;28;20049;-62
2023/08/19 10:20:56;;;;;;;13.15;8.38;;;;;;;23.14;75.64;101374.72;5046228;28;20515;-62
2023/08/19 10:23:26;;;;;;;8.38;7.30;;;;;;;23.13;75.55;101390.34;5045513;28;20071;-62
2023/08/19 10:25:55;;;;;;;15.57;7.53;;;;;;;23.17;75.16;101394.13;5044761;28;20057;-62
2023/08/19 10:28:24;;;;;;;13.57;7.80;;;;;;;23.17;75.35;101393.31;5063259;28;20082;-63
2023/08/19 10:31:06;;;;;;;13.68;7.85;;;;;;;23.20;75.44;101395.47;5064470;28;20053;-63
2023/08/19 10:33:39;;;;;;;10.50;7.25;;;;;;;23.22;75.04;101394.06;5103108;27;20047;-62
2023/08/19 10:36:09;;;;;;;11.75;8.05;;;;;;;23.24;75.43;101386.38;5130338;27;20049;-62
2023/08/19 10:38:42;;;;;;;10.93;8.18;;;;;;;;;;5125856;27;20117;-62
2023/08/19 10:41:19;;;;;;;13.00;8.40;;;;;;;23.29;75.25;101396.47;5044482;28;20129;-62
2023/08/19 10:44:00;;;;;;;12.40;7.85;;;;;;;23.30;75.40;101398.91;5044527;28;20072;-62
2023/08/19 10:46:32;;;;;;;9.52;7.35;;;;;;;23.33;75.27;101408.47;5043698;28;20117;-62
2023/08/19 10:49:00;;;;;;;10.48;7.30;;;;;;;23.35;75.07;101418.03;5044448;28;20464;-62
2023/08/19 10:51:47;;;;;;;14.35;7.80;;;;;;;23.36;75.32;101429.84;5044254;28;20057;-62
2023/08/19 10:54:16;;;;;;;12.90;8.00;;;;;;;23.40;75.73;101435.56;5057215;28;20049;-63
2023/08/19 10:56:45;;;;;;;11.00;6.95;;;;;;;23.40;75.10;101424.56;5050890;28;20053;-62
2023/08/19 10:59:13;;;;;;;12.85;7.70;;;;;;;23.40;74.84;101433.63;5044583;28;20045;-62
2023/08/19 11:01:42;;;;;;;12.13;7.60;;;;;;;23.41;74.71;101439.94;5059599;28;20044;-62
2023/08/19 11:04:10;;;;;;;9.15;7.13;;;;;;;23.42;74.38;101444.31;5064488;28;20053;-62
2023/08/19 11:06:39;;;;;;;13.57;7.93;;;;;;;23.43;74.18;101451.41;5059430;27;20046;-62
2023/08/19 11:09:08;;;;;;;9.25;7.93;;;;;;;23.43;74.31;101452.25;5044344;28;20053;-62
2023/08/19 11:11:37;;;;;;;13.32;7.93;;;;;;;23.44;74.23;101458.53;5043815;28;20426;-62
2023/08/19 11:14:06;;;;;;;9.70;7.90;;;;;;;23.44;74.25;101456.63;5044263;28;20049;-62
2023/08/19 11:16:34;;;;;;;10.15;7.32;;;;;;;23.46;74.10;101475.53;5051471;28;20048;-62
2023/08/19 11:19:02;;;;;;;11.32;7.60;;;;;;;23.47;73.96;101507.34;5063821;28;20085;-62
2023/08/19 11:21:31;;;;;;;10.70;7.78;;;;;;;23.46;74.13;101519.44;5063696;28;20494;-62
2023/08/19 11:23:59;;;;;;;14.43;8.02;;;;;;;23.48;73.82;101530.94;5053306;27;20080;-62
2023/08/19 11:26:28;;;;;;;14.70;8.80;;;;;;;23.47;74.19;101532.84;5052265;28;20075;-62
2023/08/19 11:28:56;;;;;;;12.45;8.50;;;;;;;23.48;73.69;101542.72;5142934;27;20062;-62
2023/08/19 11:31:24;;;;;;;12.70;9.45;;;;;;;23.48;74.09;101566.59;5101337;27;20108;-62